Time;durP1;ratioP1;P1;durP2;ratioP2;P2;SDS_P1;SDS_P2;PMS_P1;PMS_P2;Temp;Humidity;BMP_temperature;BMP_pressure;BME280_temperature;BME280_humidity;BME280_pressure;Samples;Min_cycle;Max_cycle;Signal;HPM_P1;HPM_P2
2022/04/02 00:01:08;;;;;;;0.10;0.10;;;;;;;;;;4922440;29;20052;-96
2022/04/02 00:03:35;;;;;;;0.10;0.10;;;;;;;;;;4907041;29;20054;-95
2022/04/02 00:06:01;;;;;;;0.10;0.10;;;;;;;;;;4922373;29;20043;-95
2022/04/02 00:08:27;;;;;;;0.10;0.10;;;;;;;;;;4906531;29;20047;-93
2022/04/02 00:10:53;;;;;;;0.10;0.10;;;;;;;;;;4906357;29;20047;-93
2022/04/02 00:13:19;;;;;;;0.10;0.10;;;;;;;;;;4906357;29;20043;-93
2022/04/02 00:15:45;;;;;;;0.10;0.10;;;;;;;;;;4906326;29;20051;-93
2022/04/02 00:18:11;;;;;;;0.10;0.10;;;;;;;;;;4908494;28;20110;-93
2022/04/02 00:20:37;;;;;;;0.10;0.10;;;;;;;;;;4941030;28;20047;-94
2022/04/02 00:25:48;;;;;;;1.15;0.63;;;;;;;;;;4943627;28;20058;-93
2022/04/02 00:28:14;;;;;;;0.10;0.10;;;;;;;;;;4940466;28;20520;-92
2022/04/02 00:30:40;;;;;;;0.10;0.10;;;;;;;;;;4941292;28;20077;-94
2022/04/02 00:33:07;;;;;;;0.10;0.10;;;;;;;;;;4941586;28;20051;-93
2022/04/02 00:35:36;;;;;;;0.10;0.10;;;;;;;;;;4941232;28;20039;-93
2022/04/02 00:38:03;;;;;;;0.10;0.10;;;;;;;;;;4940844;28;20538;-93
2022/04/02 00:40:29;;;;;;;0.10;0.10;;;;;;;;;;4941335;28;20038;-94
2022/04/02 00:42:55;;;;;;;0.10;0.10;;;;;;;;;;4941419;28;20070;-93
2022/04/02 00:45:21;;;;;;;0.10;0.10;;;;;;;;;;4940963;28;20049;-94
2022/04/02 00:47:47;;;;;;;0.28;0.28;;;;;;;;;;4940994;28;20047;-93
2022/04/02 00:50:13;;;;;;;0.10;0.10;;;;;;;;;;4941038;28;20134;-93
2022/04/02 00:52:40;;;;;;;0.10;0.10;;;;;;;;;;4941139;28;20554;-93
2022/04/02 00:55:06;;;;;;;0.10;0.10;;;;;;;;;;4941269;28;20054;-95
2022/04/02 00:57:32;;;;;;;0.10;0.10;;;;;;;;;;4943003;28;20590;-94
2022/04/02 00:59:58;;;;;;;0.10;0.10;;;;;;;;;;4943974;28;20518;-95
2022/04/02 01:02:25;;;;;;;0.10;0.10;;;;;;;;;;4944299;28;20117;-94
2022/04/02 01:04:54;;;;;;;0.10;0.10;;;;;;;;;;4944685;28;20035;-94
2022/04/02 01:07:20;;;;;;;0.10;0.10;;;;;;;;;;4944123;28;20050;-94
2022/04/02 01:09:46;;;;;;;0.10;0.10;;;;;;;;;;4944228;28;20045;-94
2022/04/02 01:12:12;;;;;;;0.10;0.10;;;;;;;;;;4943878;28;20380;-92
2022/04/02 01:14:38;;;;;;;0.10;0.10;;;;;;;;;;4944216;28;20093;-94
2022/04/02 01:17:05;;;;;;;0.10;0.10;;;;;;;;;;4943870;28;20565;-95
2022/04/02 01:19:31;;;;;;;0.10;0.10;;;;;;;;;;4944089;28;20062;-94
2022/04/02 01:21:57;;;;;;;0.10;0.10;;;;;;;;;;4944138;28;20042;-95
2022/04/02 01:24:23;;;;;;;0.10;0.10;;;;;;;;;;4943775;28;20039;-93
2022/04/02 01:26:49;;;;;;;0.10;0.10;;;;;;;;;;4944273;28;20393;-95
2022/04/02 01:29:18;;;;;;;0.10;0.10;;;;;;;;;;4944474;28;20058;-95
2022/04/02 01:31:44;;;;;;;0.10;0.10;;;;;;;;;;4943723;28;20089;-95
2022/04/02 01:34:13;;;;;;;0.10;0.10;;;;;;;;;;4944230;28;20047;-96
2022/04/02 01:36:41;;;;;;;0.10;0.10;;;;;;;;;;4945515;28;20057;-96
2022/04/02 01:42:39;;;;;;;0.10;0.10;;;;;;;;;;4922829;29;20043;-94
2022/04/02 01:48:17;;;;;;;0.10;0.10;;;;;;;;;;4953161;28;20482;-92
2022/04/02 01:50:43;;;;;;;0.10;0.10;;;;;;;;;;4943938;28;20049;-91
2022/04/02 01:53:10;;;;;;;0.10;0.10;;;;;;;;;;4942919;28;20038;-93
2022/04/02 01:55:36;;;;;;;0.10;0.10;;;;;;;;;;4943192;28;20088;-92
2022/04/02 01:58:02;;;;;;;0.10;0.10;;;;;;;;;;4943170;28;20093;-92
2022/04/02 02:00:28;;;;;;;0.10;0.10;;;;;;;;;;4958962;28;20190;-94
2022/04/02 02:02:54;;;;;;;0.10;0.10;;;;;;;;;;4943530;28;20038;-94
2022/04/02 02:05:20;;;;;;;0.10;0.10;;;;;;;;;;4943533;28;20394;-94
2022/04/02 02:07:51;;;;;;;0.10;0.10;;;;;;;;;;4942912;28;20042;-95
2022/04/02 02:10:25;;;;;;;0.10;0.10;;;;;;;;;;4943058;28;20082;-96
2022/04/02 02:12:51;;;;;;;0.10;0.10;;;;;;;;;;4942969;28;20054;-96
2022/04/02 02:15:17;;;;;;;0.10;0.10;;;;;;;;;;4942925;28;20129;-96
2022/04/02 02:17:47;;;;;;;0.10;0.10;;;;;;;;;;4943028;28;20047;-95
2022/04/02 02:20:13;;;;;;;0.10;0.10;;;;;;;;;;4942796;28;20447;-95
2022/04/02 02:22:39;;;;;;;0.10;0.10;;;;;;;;;;4943263;28;20549;-92
2022/04/02 02:25:11;;;;;;;0.10;0.10;;;;;;;;;;4942773;28;20532;-93
2022/04/02 02:27:37;;;;;;;0.10;0.10;;;;;;;;;;4946429;28;20532;-96
2022/04/02 02:30:04;;;;;;;0.10;0.10;;;;;;;;;;4942701;28;20050;-94
2022/04/02 02:32:35;;;;;;;0.10;0.10;;;;;;;;;;4942063;28;20506;-94
2022/04/02 02:37:45;;;;;;;0.10;0.10;;;;;;;;;;4944869;28;20047;-94
2022/04/02 02:40:48;;;;;;;;;;;;;;;;;;;;;
2022/04/02 02:47:24;;;;;;;0.10;0.10;;;;;;;;;;4984866;28;20078;-96
2022/04/02 02:49:34;;;;;;;0.10;0.10;;;;;;;;;;4952543;28;20466;-95
2022/04/02 02:52:00;;;;;;;0.10;0.10;;;;;;;;;;4942450;28;20038;-94
2022/04/02 02:54:26;;;;;;;0.10;0.10;;;;;;;;;;4942486;28;20479;-94
2022/04/02 02:56:53;;;;;;;0.10;0.10;;;;;;;;;;4942150;28;20069;-94
2022/04/02 02:59:19;;;;;;;0.10;0.10;;;;;;;;;;4941994;28;20085;-95
2022/04/02 03:01:49;;;;;;;0.10;0.10;;;;;;;;;;4958569;28;20046;-92
2022/04/02 03:04:15;;;;;;;0.10;0.10;;;;;;;;;;4942202;28;20042;-95
2022/04/02 03:06:41;;;;;;;0.10;0.10;;;;;;;;;;4942069;28;20070;-93
2022/04/02 03:09:07;;;;;;;0.10;0.10;;;;;;;;;;4941897;28;20043;-92
2022/04/02 03:11:33;;;;;;;0.10;0.10;;;;;;;;;;4941775;28;20043;-92
2022/04/02 03:14:01;;;;;;;0.10;0.10;;;;;;;;;;4942075;28;20101;-96
2022/04/02 03:16:27;;;;;;;0.10;0.10;;;;;;;;;;4941580;28;20471;-94
2022/04/02 03:18:54;;;;;;;0.10;0.10;;;;;;;;;;4936524;29;20071;-95
2022/04/02 03:21:21;;;;;;;0.03;0.03;;;;;;;;;;4935527;29;20070;-95
2022/04/02 03:23:47;;;;;;;0.10;0.10;;;;;;;;;;4935567;29;20075;-94
2022/04/02 03:26:13;;;;;;;0.10;0.10;;;;;;;;;;4935399;29;20048;-94
2022/04/02 03:28:39;;;;;;;0.10;0.10;;;;;;;;;;4935100;29;20542;-93
2022/04/02 03:31:05;;;;;;;0.10;0.10;;;;;;;;;;4936129;29;20039;-95
2022/04/02 03:33:31;;;;;;;0.10;0.10;;;;;;;;;;4935180;29;20040;-94
2022/04/02 03:35:57;;;;;;;0.10;0.10;;;;;;;;;;4935338;29;20047;-94
2022/04/02 03:38:23;;;;;;;0.10;0.10;;;;;;;;;;4934912;29;20166;-94
2022/04/02 03:40:50;;;;;;;0.10;0.10;;;;;;;;;;4935466;29;20079;-95
2022/04/02 03:43:16;;;;;;;0.10;0.10;;;;;;;;;;4935199;29;20042;-93
2022/04/02 03:45:42;;;;;;;0.10;0.10;;;;;;;;;;4935024;29;20046;-93
2022/04/02 03:48:08;;;;;;;0.10;0.10;;;;;;;;;;4935239;29;20048;-93
2022/04/02 03:50:35;;;;;;;0.10;0.10;;;;;;;;;;4935081;29;20043;-93
2022/04/02 03:53:01;;;;;;;0.10;0.10;;;;;;;;;;4934907;29;20082;-93
2022/04/02 03:55:27;;;;;;;0.10;0.10;;;;;;;;;;4934994;29;20070;-92
2022/04/02 03:57:53;;;;;;;0.10;0.10;;;;;;;;;;4935129;29;20476;-92
2022/04/02 04:00:20;;;;;;;0.10;0.10;;;;;;;;;;4934890;29;20051;-92
2022/04/02 04:02:47;;;;;;;0.10;0.10;;;;;;;;;;4935371;29;20040;-94
2022/04/02 04:05:13;;;;;;;0.10;0.10;;;;;;;;;;4935299;29;20155;-94
2022/04/02 04:07:39;;;;;;;0.10;0.10;;;;;;;;;;4935724;29;20047;-93
2022/04/02 04:10:05;;;;;;;0.10;0.10;;;;;;;;;;4940155;28;20044;-93
2022/04/02 04:12:32;;;;;;;0.10;0.10;;;;;;;;;;4941648;29;20559;-94
2022/04/02 04:15:00;;;;;;;0.10;0.10;;;;;;;;;;4944046;29;20112;-93
2022/04/02 04:17:26;;;;;;;0.10;0.10;;;;;;;;;;4951683;28;20495;-92
2022/04/02 04:19:53;;;;;;;0.10;0.10;;;;;;;;;;4941647;29;20063;-95
2022/04/02 04:22:20;;;;;;;0.10;0.10;;;;;;;;;;4939009;29;20052;-94
2022/04/02 04:24:46;;;;;;;0.10;0.10;;;;;;;;;;4940669;29;20521;-92
2022/04/02 04:27:12;;;;;;;0.10;0.10;;;;;;;;;;4955891;29;20463;-90
2022/04/02 04:29:38;;;;;;;0.10;0.10;;;;;;;;;;4956677;28;20070;-91
2022/04/02 04:32:06;;;;;;;1.27;0.38;;;;;;;;;;4955374;28;20059;-93
2022/04/02 04:34:33;;;;;;;0.10;0.10;;;;;;;;;;4938157;29;20043;-93
2022/04/02 04:36:58;;;;;;;0.10;0.10;;;;;;;;;;4938212;29;20047;-93
2022/04/02 04:39:24;;;;;;;0.10;0.10;;;;;;;;;;4938510;29;20040;-93
2022/04/02 04:41:50;;;;;;;0.10;0.10;;;;;;;;;;4937909;29;20447;-93
2022/04/02 04:44:16;;;;;;;0.10;0.10;;;;;;;;;;4938284;29;20044;-93
2022/04/02 04:46:42;;;;;;;0.10;0.10;;;;;;;;;;4938220;29;20040;-93
2022/04/02 04:49:09;;;;;;;0.10;0.10;;;;;;;;;;4937931;29;20138;-94
2022/04/02 04:51:37;;;;;;;0.10;0.10;;;;;;;;;;4937906;29;20103;-95
2022/04/02 04:54:03;;;;;;;0.10;0.10;;;;;;;;;;4937786;29;20484;-94
2022/04/02 04:56:29;;;;;;;0.10;0.10;;;;;;;;;;4937917;29;20398;-94
2022/04/02 04:58:55;;;;;;;0.10;0.10;;;;;;;;;;4937980;29;20392;-95
2022/04/02 05:01:22;;;;;;;0.10;0.10;;;;;;;;;;4937935;29;20471;-93
2022/04/02 05:03:48;;;;;;;0.10;0.10;;;;;;;;;;4937374;29;20048;-92
2022/04/02 05:06:14;;;;;;;0.10;0.10;;;;;;;;;;4938168;29;20054;-93
2022/04/02 05:08:40;;;;;;;0.10;0.10;;;;;;;;;;4938068;29;20040;-93
2022/04/02 05:11:10;;;;;;;0.10;0.10;;;;;;;;;;4937547;29;20483;-94
2022/04/02 05:13:36;;;;;;;0.10;0.10;;;;;;;;;;4936808;29;20052;-94
2022/04/02 05:16:02;;;;;;;0.15;0.15;;;;;;;;;;4937801;29;20055;-93
2022/04/02 05:18:28;;;;;;;0.10;0.10;;;;;;;;;;4937263;29;20499;-94
2022/04/02 05:20:54;;;;;;;0.10;0.10;;;;;;;;;;4937946;29;20574;-92
2022/04/02 05:23:20;;;;;;;0.10;0.10;;;;;;;;;;4937346;29;20039;-93
2022/04/02 05:25:46;;;;;;;0.10;0.10;;;;;;;;;;4937529;29;20054;-95
2022/04/02 05:28:14;;;;;;;0.10;0.10;;;;;;;;;;4937610;29;20044;-94
2022/04/02 05:30:40;;;;;;;0.10;0.10;;;;;;;;;;4937242;29;20048;-95
2022/04/02 05:33:06;;;;;;;0.10;0.10;;;;;;;;;;4937785;29;20471;-96
2022/04/02 05:35:32;;;;;;;0.10;0.10;;;;;;;;;;4937311;29;20044;-94
2022/04/02 05:37:58;;;;;;;0.10;0.10;;;;;;;;;;4937144;29;20055;-96
2022/04/02 05:40:24;;;;;;;0.10;0.10;;;;;;;;;;4937502;29;20051;-96
2022/04/02 05:42:50;;;;;;;0.10;0.10;;;;;;;;;;4936508;29;20040;-93
2022/04/02 05:45:16;;;;;;;0.10;0.10;;;;;;;;;;4936881;29;20035;-95
2022/04/02 05:47:43;;;;;;;0.10;0.10;;;;;;;;;;5288608;23;20138;-96
2022/04/02 05:50:20;;;;;;;0.08;0.08;;;;;;;;;;4924962;29;20130;-93
2022/04/02 05:53:01;;;;;;;0.10;0.10;;;;;;;;;;4929998;29;20043;-95
2022/04/02 05:55:35;;;;;;;0.10;0.10;;;;;;;;;;4913478;29;20047;-96
2022/04/02 05:58:03;;;;;;;0.10;0.10;;;;;;;;;;4943714;29;20075;-96
2022/04/02 06:00:32;;;;;;;0.10;0.10;;;;;;;;;;4913388;29;20042;-96
2022/04/02 06:03:08;;;;;;;0.10;0.10;;;;;;;;;;4933341;29;20047;-96
2022/04/02 06:05:34;;;;;;;0.10;0.10;;;;;;;;;;4944842;29;20054;-95
2022/04/02 06:08:00;;;;;;;0.10;0.10;;;;;;;;;;4924792;29;20094;-92
2022/04/02 06:10:26;;;;;;;0.10;0.10;;;;;;;;;;4908491;29;20087;-94
2022/04/02 06:12:52;;;;;;;0.10;0.10;;;;;;;;;;4908390;29;20050;-93
2022/04/02 06:15:18;;;;;;;0.10;0.10;;;;;;;;;;4908831;29;20394;-93
2022/04/02 06:17:45;;;;;;;0.10;0.10;;;;;;;;;;4907956;29;20043;-93
2022/04/02 06:20:13;;;;;;;0.10;0.10;;;;;;;;;;4923899;29;20046;-94
2022/04/02 06:22:39;;;;;;;0.10;0.10;;;;;;;;;;4924355;29;20481;-93
2022/04/02 06:25:06;;;;;;;0.10;0.10;;;;;;;;;;4908621;29;20050;-91
2022/04/02 06:27:32;;;;;;;0.10;0.10;;;;;;;;;;4907945;29;20134;-93
2022/04/02 06:29:58;;;;;;;0.10;0.10;;;;;;;;;;4924883;29;20043;-94
2022/04/02 06:32:30;;;;;;;0.10;0.10;;;;;;;;;;4925586;29;20047;-94
2022/04/02 06:35:09;;;;;;;0.10;0.10;;;;;;;;;;4925680;29;20510;-96
2022/04/02 06:37:35;;;;;;;0.10;0.10;;;;;;;;;;4908873;29;20537;-93
2022/04/02 06:40:02;;;;;;;0.10;0.10;;;;;;;;;;4923449;29;20039;-93
2022/04/02 06:42:28;;;;;;;0.10;0.10;;;;;;;;;;4923172;29;20035;-91
2022/04/02 06:44:54;;;;;;;0.10;0.10;;;;;;;;;;4907379;29;20039;-92
2022/04/02 06:47:24;;;;;;;0.10;0.10;;;;;;;;;;4907413;29;20106;-93
2022/04/02 06:49:50;;;;;;;0.10;0.10;;;;;;;;;;4907076;29;20050;-90
2022/04/02 06:52:16;;;;;;;0.10;0.10;;;;;;;;;;4906665;29;20098;-91
2022/04/02 06:54:42;;;;;;;0.10;0.10;;;;;;;;;;4906085;29;20117;-90
2022/04/02 06:57:08;;;;;;;0.10;0.10;;;;;;;;;;4922331;29;20040;-91
2022/04/02 06:59:34;;;;;;;0.10;0.10;;;;;;;;;;4906891;29;20046;-90
2022/04/02 07:02:01;;;;;;;0.10;0.10;;;;;;;;;;4907080;29;20366;-93
2022/04/02 07:04:27;;;;;;;0.10;0.10;;;;;;;;;;4922901;29;20138;-90
2022/04/02 07:06:53;;;;;;;0.10;0.10;;;;;;;;;;4921586;29;20074;-93
2022/04/02 07:09:19;;;;;;;0.10;0.10;;;;;;;;;;4906639;29;20110;-90
2022/04/02 07:11:45;;;;;;;0.10;0.10;;;;;;;;;;4937336;29;20078;-89
2022/04/02 07:14:11;;;;;;;0.20;0.20;;;;;;;;;;4906224;29;20053;-89
2022/04/02 07:16:38;;;;;;;0.10;0.10;;;;;;;;;;4905846;29;20047;-90
2022/04/02 07:19:04;;;;;;;0.10;0.10;;;;;;;;;;4922040;29;20051;-88
2022/04/02 07:21:30;;;;;;;0.10;0.10;;;;;;;;;;4921675;29;20557;-89
2022/04/02 07:23:56;;;;;;;0.10;0.10;;;;;;;;;;4906224;29;20074;-90
2022/04/02 07:26:22;;;;;;;0.10;0.10;;;;;;;;;;4921445;29;20043;-90
2022/04/02 07:28:52;;;;;;;0.10;0.10;;;;;;;;;;4921883;29;20047;-88
2022/04/02 07:31:18;;;;;;;0.10;0.10;;;;;;;;;;4921405;29;20042;-88
2022/04/02 07:33:44;;;;;;;0.10;0.10;;;;;;;;;;4921437;29;20047;-89
2022/04/02 07:36:33;;;;;;;0.10;0.10;;;;;;;;;;4921329;29;20039;-89
2022/04/02 07:39:00;;;;;;;0.20;0.20;;;;;;;;;;4914069;29;20453;-88
2022/04/02 07:41:27;;;;;;;0.10;0.10;;;;;;;;;;4921439;29;20129;-89
2022/04/02 07:43:58;;;;;;;0.10;0.10;;;;;;;;;;4906124;29;20031;-91
2022/04/02 07:46:25;;;;;;;0.10;0.10;;;;;;;;;;4906830;29;20379;-92
2022/04/02 07:48:51;;;;;;;0.10;0.10;;;;;;;;;;4906179;29;20059;-92
2022/04/02 07:51:21;;;;;;;0.10;0.10;;;;;;;;;;4922238;29;20057;-93
2022/04/02 08:08:26;;;;;;;0.10;0.10;;;;;;;;;;5915287;23;20054;-93
2022/04/02 08:10:56;;;;;;;0.10;0.10;;;;;;;;;;4983722;28;20076;-93
2022/04/02 08:13:23;;;;;;;0.10;0.10;;;;;;;;;;4980479;28;20050;-94
2022/04/02 08:15:54;;;;;;;0.10;0.10;;;;;;;;;;4967829;28;20042;-93
2022/04/02 08:18:23;;;;;;;0.10;0.10;;;;;;;;;;4983239;28;20047;-95
2022/04/02 08:20:52;;;;;;;0.10;0.10;;;;;;;;;;4981451;28;20094;-95
2022/04/02 08:23:40;;;;;;;0.10;0.10;;;;;;;;;;4984177;28;20084;-96
2022/04/02 08:26:37;;;;;;;0.10;0.10;;;;;;;;;;5020281;28;20109;-96
2022/04/02 08:29:24;;;;;;;0.20;0.20;;;;;;;;;;4990096;28;20041;-96
2022/04/02 08:31:57;;;;;;;0.10;0.10;;;;;;;;;;4987239;28;20070;-94
2022/04/02 08:34:40;;;;;;;0.10;0.10;;;;;;;;;;4984753;28;20141;-94
2022/04/02 08:37:19;;;;;;;0.13;0.13;;;;;;;;;;4983793;28;20038;-92
2022/04/02 08:43:17;;;;;;;0.10;0.10;;;;;;;;;;5508095;23;20051;-92
2022/04/02 08:45:55;;;;;;;0.10;0.10;;;;;;;;;;4931488;28;20072;-92
2022/04/02 08:48:26;;;;;;;0.10;0.10;;;;;;;;;;4930535;28;20138;-92
2022/04/02 08:51:09;;;;;;;0.10;0.10;;;;;;;;;;4926751;29;20055;-93
2022/04/02 08:53:50;;;;;;;0.10;0.10;;;;;;;;;;4955542;29;20058;-94
2022/04/02 08:56:24;;;;;;;0.10;0.10;;;;;;;;;;4957696;29;20040;-93
2022/04/02 08:58:56;;;;;;;0.10;0.10;;;;;;;;;;4931842;29;20043;-93
2022/04/02 09:01:30;;;;;;;0.10;0.10;;;;;;;;;;4944471;29;20043;-96
2022/04/02 09:04:18;;;;;;;0.10;0.10;;;;;;;;;;4943325;29;20048;-92
2022/04/02 09:06:47;;;;;;;0.10;0.10;;;;;;;;;;4957985;29;20039;-93
2022/04/02 09:09:13;;;;;;;0.20;0.20;;;;;;;;;;4943913;29;20043;-94
2022/04/02 09:11:42;;;;;;;0.20;0.20;;;;;;;;;;4942152;29;20079;-94
2022/04/02 09:14:31;;;;;;;0.10;0.10;;;;;;;;;;4943320;29;20085;-95
2022/04/02 09:17:37;;;;;;;0.10;0.10;;;;;;;;;;4942251;29;20047;-95
2022/04/02 09:20:18;;;;;;;0.10;0.10;;;;;;;;;;4850033;29;20052;-94
2022/04/02 09:23:03;;;;;;;0.10;0.10;;;;;;;;;;4837101;29;20049;-96
2022/04/02 09:25:44;;;;;;;0.10;0.10;;;;;;;;;;4921383;29;20138;-92
2022/04/02 09:28:29;;;;;;;0.10;0.10;;;;;;;;;;4943048;29;20077;-95
2022/04/02 09:31:12;;;;;;;0.20;0.20;;;;;;;;;;4926394;29;20502;-96
2022/04/02 09:34:05;;;;;;;0.20;0.20;;;;;;;;;;4960828;29;20051;-95
2022/04/02 09:36:41;;;;;;;0.10;0.10;;;;;;;;;;4943379;29;20043;-95
2022/04/02 09:39:13;;;;;;;0.10;0.10;;;;;;;;;;4924921;29;20035;-94
2022/04/02 09:41:45;;;;;;;0.10;0.10;;;;;;;;;;4927331;29;20130;-96
2022/04/02 09:44:12;;;;;;;0.20;0.20;;;;;;;;;;4946501;29;20047;-94
2022/04/02 09:46:41;;;;;;;0.10;0.10;;;;;;;;;;4945620;29;20043;-95
2022/04/02 09:49:26;;;;;;;0.10;0.10;;;;;;;;;;4947768;29;20081;-94
2022/04/02 09:52:24;;;;;;;;;;;;;;;;;;;;;
2022/04/02 09:55:13;;;;;;;0.40;0.40;;;;;;;;;;4940293;29;20055;-92
2022/04/02 09:57:59;;;;;;;0.10;0.10;;;;;;;;;;4929110;29;20130;-95
2022/04/02 10:00:26;;;;;;;0.10;0.10;;;;;;;;;;4940900;29;20047;-92
2022/04/02 10:03:08;;;;;;;0.10;0.10;;;;;;;;;;4926011;29;20120;-93
2022/04/02 10:05:44;;;;;;;0.10;0.10;;;;;;;;;;4925946;29;20035;-94
2022/04/02 10:08:29;;;;;;;0.10;0.10;;;;;;;;;;4938005;29;20053;-92
2022/04/02 10:11:00;;;;;;;0.10;0.10;;;;;;;;;;4923262;29;20130;-91
2022/04/02 10:13:27;;;;;;;0.10;0.10;;;;;;;;;;4907290;29;20043;-93
2022/04/02 10:15:55;;;;;;;0.10;0.10;;;;;;;;;;4917356;29;20050;-93
2022/04/02 10:18:22;;;;;;;0.10;0.10;;;;;;;;;;4924317;29;20055;-92
2022/04/02 10:20:54;;;;;;;0.10;0.10;;;;;;;;;;4925002;29;20090;-92
2022/04/02 10:23:24;;;;;;;0.10;0.10;;;;;;;;;;4924005;29;20047;-93
2022/04/02 10:25:56;;;;;;;0.10;0.10;;;;;;;;;;4924116;29;20066;-93
2022/04/02 10:28:22;;;;;;;0.10;0.10;;;;;;;;;;4939689;29;20096;-93
2022/04/02 10:30:48;;;;;;;0.10;0.10;;;;;;;;;;4923372;29;20262;-93
2022/04/02 10:33:26;;;;;;;0.10;0.10;;;;;;;;;;4924650;29;20047;-94
2022/04/02 10:35:53;;;;;;;0.10;0.10;;;;;;;;;;4924910;29;20110;-95
2022/04/02 10:38:24;;;;;;;0.10;0.10;;;;;;;;;;4924220;29;20115;-93
2022/04/02 10:40:51;;;;;;;0.10;0.10;;;;;;;;;;4924292;29;20500;-94
2022/04/02 10:43:35;;;;;;;0.10;0.10;;;;;;;;;;4939784;29;20051;-92
2022/04/02 10:46:03;;;;;;;0.10;0.10;;;;;;;;;;4923760;29;20054;-96
2022/04/02 10:48:39;;;;;;;0.10;0.10;;;;;;;;;;4924246;29;20107;-94
2022/04/02 10:51:05;;;;;;;0.10;0.10;;;;;;;;;;4923513;29;20065;-93
2022/04/02 10:53:33;;;;;;;0.10;0.10;;;;;;;;;;4922940;29;20485;-95
2022/04/02 10:56:02;;;;;;;0.10;0.10;;;;;;;;;;4923398;29;20105;-96
2022/04/02 10:58:49;;;;;;;0.10;0.10;;;;;;;;;;4922774;29;20411;-96
2022/04/02 11:01:24;;;;;;;0.10;0.10;;;;;;;;;;4933936;29;20047;-95
2022/04/02 11:03:55;;;;;;;0.10;0.10;;;;;;;;;;4923086;29;20122;-94
2022/04/02 11:06:40;;;;;;;0.10;0.10;;;;;;;;;;4922869;29;20366;-94
2022/04/02 11:09:41;;;;;;;0.10;0.10;;;;;;;;;;4938472;29;20055;-93
2022/04/02 11:12:08;;;;;;;0.10;0.10;;;;;;;;;;4847069;29;20101;-93
2022/04/02 11:14:37;;;;;;;0.10;0.10;;;;;;;;;;4923740;29;20047;-93
2022/04/02 11:17:04;;;;;;;0.10;0.10;;;;;;;;;;4922611;29;20047;-93
2022/04/02 11:22:21;;;;;;;0.10;0.10;;;;;;;;;;4942186;29;20126;-94
2022/04/02 11:24:51;;;;;;;0.10;0.10;;;;;;;;;;4923245;29;20050;-93
2022/04/02 11:27:18;;;;;;;0.10;0.10;;;;;;;;;;4942390;29;20106;-93
2022/04/02 11:29:47;;;;;;;0.22;0.22;;;;;;;;;;4938454;29;20474;-93
2022/04/02 11:32:13;;;;;;;0.10;0.10;;;;;;;;;;4923215;29;20133;-94
2022/04/02 11:34:39;;;;;;;0.20;0.20;;;;;;;;;;4938571;29;20071;-94
2022/04/02 11:37:07;;;;;;;0.10;0.10;;;;;;;;;;4924037;29;20047;-93
2022/04/02 11:39:38;;;;;;;0.10;0.10;;;;;;;;;;4922509;28;20039;-95
2022/04/02 11:42:04;;;;;;;0.10;0.10;;;;;;;;;;4921822;29;20055;-94
2022/04/02 11:44:35;;;;;;;0.10;0.10;;;;;;;;;;4922842;29;20120;-93
2022/04/02 11:47:02;;;;;;;0.10;0.10;;;;;;;;;;4922466;29;20058;-94
2022/04/02 11:49:36;;;;;;;0.10;0.10;;;;;;;;;;4922746;29;20415;-93
2022/04/02 11:52:07;;;;;;;0.10;0.10;;;;;;;;;;4922172;29;20047;-92
2022/04/02 11:54:38;;;;;;;0.10;0.10;;;;;;;;;;4922209;29;20399;-93
2022/04/02 11:57:15;;;;;;;0.10;0.10;;;;;;;;;;4922254;29;20055;-92
2022/04/02 11:59:57;;;;;;;0.13;0.13;;;;;;;;;;4922092;29;20047;-92
2022/04/02 12:02:51;;;;;;;0.10;0.10;;;;;;;;;;4922414;29;20495;-92
2022/04/02 12:05:17;;;;;;;0.10;0.10;;;;;;;;;;4923944;29;20130;-93
2022/04/02 12:07:58;;;;;;;0.10;0.10;;;;;;;;;;4923912;29;20126;-94
2022/04/02 12:10:25;;;;;;;0.10;0.10;;;;;;;;;;4938875;29;20047;-92
2022/04/02 12:12:52;;;;;;;0.10;0.10;;;;;;;;;;4937796;29;20059;-93
2022/04/02 12:15:18;;;;;;;0.10;0.10;;;;;;;;;;4922209;29;20553;-92
2022/04/02 12:17:48;;;;;;;0.20;0.20;;;;;;;;;;4922102;29;20097;-94
2022/04/02 12:20:19;;;;;;;0.10;0.10;;;;;;;;;;4922298;29;20395;-93
2022/04/02 12:22:46;;;;;;;0.10;0.10;;;;;;;;;;4922085;29;20050;-92
2022/04/02 12:25:13;;;;;;;0.40;0.40;;;;;;;;;;4922373;29;20046;-91
2022/04/02 12:27:39;;;;;;;0.10;0.10;;;;;;;;;;4922295;29;20047;-91
2022/04/02 12:30:06;;;;;;;0.10;0.10;;;;;;;;;;4922922;29;20394;-95
2022/04/02 12:32:44;;;;;;;0.10;0.10;;;;;;;;;;4923647;29;20066;-95
2022/04/02 12:35:13;;;;;;;0.20;0.20;;;;;;;;;;4922212;29;20486;-91
2022/04/02 12:37:49;;;;;;;0.10;0.10;;;;;;;;;;4937577;29;20040;-92
2022/04/02 12:40:15;;;;;;;0.10;0.10;;;;;;;;;;4922001;29;20539;-94
2022/04/02 12:42:41;;;;;;;0.10;0.10;;;;;;;;;;4942542;29;20062;-92
2022/04/02 12:45:08;;;;;;;0.10;0.10;;;;;;;;;;4939233;28;20130;-91
2022/04/02 12:47:35;;;;;;;0.10;0.10;;;;;;;;;;4940821;28;20523;-91
2022/04/02 12:50:11;;;;;;;0.20;0.20;;;;;;;;;;4924812;28;20504;-89
2022/04/02 12:52:44;;;;;;;0.10;0.10;;;;;;;;;;4941581;28;20523;-91
2022/04/02 12:55:16;;;;;;;0.20;0.20;;;;;;;;;;4928282;28;20097;-90
2022/04/02 12:57:45;;;;;;;0.10;0.10;;;;;;;;;;4928955;28;20047;-90
2022/04/02 13:00:11;;;;;;;0.10;0.10;;;;;;;;;;4944702;28;20042;-92
2022/04/02 13:02:41;;;;;;;0.10;0.10;;;;;;;;;;4928217;28;20039;-90
2022/04/02 13:05:08;;;;;;;0.10;0.10;;;;;;;;;;4944232;28;20051;-92
2022/04/02 13:07:34;;;;;;;0.10;0.10;;;;;;;;;;4928986;28;20083;-88
2022/04/02 13:10:00;;;;;;;0.10;0.10;;;;;;;;;;4930533;28;20046;-89
2022/04/02 13:12:26;;;;;;;0.10;0.10;;;;;;;;;;4946355;28;20039;-89
2022/04/02 13:15:06;;;;;;;0.10;0.10;;;;;;;;;;4934370;28;20519;-89
2022/04/02 13:20:28;;;;;;;0.20;0.20;;;;;;;;;;4929877;28;20047;-86
2022/04/02 13:20:32;;;;;;;0.10;0.10;;;;;;;;;;4946343;28;20465;-88
2022/04/02 13:22:58;;;;;;;0.15;0.15;;;;;;;;;;4932110;28;20057;-88
2022/04/02 13:25:29;;;;;;;0.10;0.10;;;;;;;;;;4930138;28;20049;-88
2022/04/02 13:28:11;;;;;;;0.10;0.10;;;;;;;;;;4943572;28;20049;-89
2022/04/02 13:30:43;;;;;;;0.10;0.10;;;;;;;;;;4943621;28;20366;-88
2022/04/02 13:33:18;;;;;;;0.10;0.10;;;;;;;;;;4927935;28;20066;-89
2022/04/02 13:35:45;;;;;;;0.20;0.20;;;;;;;;;;4958945;28;20042;-88
2022/04/02 13:38:23;;;;;;;0.10;0.10;;;;;;;;;;4927179;28;20468;-91
2022/04/02 13:40:51;;;;;;;0.10;0.10;;;;;;;;;;4958881;28;20508;-89
2022/04/02 13:43:28;;;;;;;0.10;0.10;;;;;;;;;;4942549;28;20077;-89
2022/04/02 13:45:56;;;;;;;0.10;0.10;;;;;;;;;;4943516;28;20355;-89
2022/04/02 13:48:22;;;;;;;0.10;0.10;;;;;;;;;;4958967;28;20050;-89
2022/04/02 13:51:07;;;;;;;0.10;0.10;;;;;;;;;;4926783;28;20517;-89
2022/04/02 13:53:35;;;;;;;0.20;0.20;;;;;;;;;;4958550;28;20046;-90
2022/04/02 13:56:04;;;;;;;0.10;0.10;;;;;;;;;;4942507;28;20042;-88
2022/04/02 13:58:31;;;;;;;0.10;0.10;;;;;;;;;;4958259;28;20515;-90
2022/04/02 14:00:57;;;;;;;0.15;0.15;;;;;;;;;;4925682;28;20109;-89
2022/04/02 14:03:23;;;;;;;0.10;0.10;;;;;;;;;;4926160;28;20034;-89
2022/04/02 14:05:51;;;;;;;0.10;0.10;;;;;;;;;;4926504;28;20100;-89
2022/04/02 14:08:19;;;;;;;0.20;0.20;;;;;;;;;;4942492;28;20061;-91
2022/04/02 14:10:45;;;;;;;0.10;0.10;;;;;;;;;;4927002;28;20085;-93
2022/04/02 14:13:28;;;;;;;0.10;0.10;;;;;;;;;;4958382;28;20051;-92
2022/04/02 14:15:58;;;;;;;0.10;0.10;;;;;;;;;;4927345;28;20042;-91
2022/04/02 14:18:28;;;;;;;0.10;0.10;;;;;;;;;;4927004;28;20406;-92
2022/04/02 14:21:13;;;;;;;0.20;0.20;;;;;;;;;;4927003;28;20390;-93
2022/04/02 14:23:47;;;;;;;0.10;0.10;;;;;;;;;;4942877;28;20038;-92
2022/04/02 14:26:16;;;;;;;0.10;0.10;;;;;;;;;;4927197;28;20074;-92
2022/04/02 14:28:50;;;;;;;0.10;0.10;;;;;;;;;;4942892;28;20389;-92
2022/04/02 14:31:19;;;;;;;0.10;0.10;;;;;;;;;;4926669;28;20043;-91
2022/04/02 14:33:45;;;;;;;0.10;0.10;;;;;;;;;;4942403;28;20041;-92
2022/04/02 14:36:29;;;;;;;0.10;0.10;;;;;;;;;;4942347;28;20397;-91
2022/04/02 14:39:11;;;;;;;0.10;0.10;;;;;;;;;;4942545;28;20052;-92
2022/04/02 14:41:43;;;;;;;0.10;0.10;;;;;;;;;;4942189;28;20221;-90
2022/04/02 14:44:12;;;;;;;0.10;0.10;;;;;;;;;;4958894;28;20338;-91
2022/04/02 14:46:48;;;;;;;0.10;0.10;;;;;;;;;;4942136;28;20486;-90
2022/04/02 14:49:20;;;;;;;0.10;0.10;;;;;;;;;;4941678;28;20090;-90
2022/04/02 14:51:54;;;;;;;0.10;0.10;;;;;;;;;;4942033;28;20469;-91
2022/04/02 14:54:47;;;;;;;0.10;0.10;;;;;;;;;;4941763;28;20494;-91
2022/04/02 14:57:31;;;;;;;0.20;0.20;;;;;;;;;;4936395;28;20059;-88
2022/04/02 15:00:16;;;;;;;0.10;0.10;;;;;;;;;;4942286;28;20565;-91
2022/04/02 15:02:42;;;;;;;0.10;0.10;;;;;;;;;;4941595;28;20039;-92
2022/04/02 15:05:25;;;;;;;0.10;0.10;;;;;;;;;;4957748;28;20066;-90
2022/04/02 15:08:12;;;;;;;0.10;0.10;;;;;;;;;;4959895;28;20140;-96
2022/04/02 15:10:48;;;;;;;0.10;0.10;;;;;;;;;;4942953;28;20038;-91
2022/04/02 15:13:25;;;;;;;0.10;0.10;;;;;;;;;;4928134;28;20129;-95
2022/04/02 15:15:51;;;;;;;0.10;0.10;;;;;;;;;;4926469;28;20047;-95
2022/04/02 15:18:33;;;;;;;0.10;0.10;;;;;;;;;;4933728;28;20142;-95
2022/04/02 15:21:20;;;;;;;0.10;0.10;;;;;;;;;;4959029;28;20041;-93
2022/04/02 15:24:10;;;;;;;0.10;0.10;;;;;;;;;;4931337;28;20085;-93
2022/04/02 15:26:52;;;;;;;0.10;0.10;;;;;;;;;;4942605;28;20049;-92
2022/04/02 15:29:30;;;;;;;0.20;0.20;;;;;;;;;;4926250;28;20090;-92
2022/04/02 15:31:59;;;;;;;0.10;0.10;;;;;;;;;;4926205;28;20047;-92
2022/04/02 15:34:30;;;;;;;0.10;0.10;;;;;;;;;;4942662;28;20043;-95
2022/04/02 15:37:04;;;;;;;0.10;0.10;;;;;;;;;;4955669;28;20074;-94
2022/04/02 15:39:33;;;;;;;0.10;0.10;;;;;;;;;;4929422;28;20038;-93
2022/04/02 15:42:01;;;;;;;0.10;0.10;;;;;;;;;;4930642;28;20131;-94